Time;durP1;ratioP1;P1;durP2;ratioP2;P2;SDS_P1;SDS_P2;PMS_P1;PMS_P2;Temp;Humidity;BMP_temperature;BMP_pressure;BME280_temperature;BME280_humidity;BME280_pressure;Samples;Min_cycle;Max_cycle;Signal;HPM_P1;HPM_P2
2021/11/15 00:00:12;;;;;;;18.15;11.20;;;;;;;;;;5054639;28;20040;-55
2021/11/15 00:02:39;;;;;;;15.38;10.52;;;;;;;;;;5053700;28;20043;-57
2021/11/15 00:05:06;;;;;;;15.90;11.05;;;;;;;;;;5054477;28;20541;-55
2021/11/15 00:07:32;;;;;;;18.33;11.07;;;;;;;;;;5053624;28;20060;-57
2021/11/15 00:09:58;;;;;;;17.00;11.65;;;;;;;;;;5054188;28;20490;-57
2021/11/15 00:12:24;;;;;;;13.82;10.80;;;;;;;;;;5054183;28;20036;-55
2021/11/15 00:14:50;;;;;;;15.73;12.23;;;;;;;;;;5053977;28;20029;-56
2021/11/15 00:17:16;;;;;;;16.33;11.75;;;;;;;;;;5053236;28;20502;-56
2021/11/15 00:19:42;;;;;;;20.20;12.68;;;;;;;;;;5054340;28;20060;-56
2021/11/15 00:22:08;;;;;;;17.80;13.02;;;;;;;;;;5054527;28;20028;-57
2021/11/15 00:24:34;;;;;;;14.15;10.25;;;;;;;;;;5053918;28;20021;-55
2021/11/15 00:27:00;;;;;;;16.77;10.93;;;;;;;;;;5053199;28;20040;-55
2021/11/15 00:29:26;;;;;;;20.88;10.98;;;;;;;;;;5054089;28;20076;-54
2021/11/15 00:31:52;;;;;;;18.13;11.77;;;;;;;;;;5054245;28;20059;-55
2021/11/15 00:34:18;;;;;;;16.70;11.90;;;;;;;;;;5053922;28;20357;-57
2021/11/15 00:36:44;;;;;;;17.55;11.60;;;;;;;;;;5052935;28;20163;-53
2021/11/15 00:39:10;;;;;;;20.17;12.82;;;;;;;;;;5053859;28;20489;-55
2021/11/15 00:41:36;;;;;;;19.58;9.55;;;;;;;;;;5053649;28;20060;-57
2021/11/15 00:44:02;;;;;;;17.58;11.38;;;;;;;;;;5053537;28;20406;-56
2021/11/15 00:46:28;;;;;;;17.13;10.82;;;;;;;;;;5053189;28;20568;-56
2021/11/15 00:48:57;;;;;;;16.13;10.90;;;;;;;;;;5053604;28;20029;-55
2021/11/15 00:51:24;;;;;;;14.48;11.18;;;;;;;;;;5053673;28;20033;-56
2021/11/15 00:53:51;;;;;;;20.80;13.23;;;;;;;;;;5053516;28;20025;-55
2021/11/15 00:56:17;;;;;;;16.48;11.38;;;;;;;;;;5052442;28;20039;-56
2021/11/15 00:58:43;;;;;;;11.93;9.75;;;;;;;;;;5053454;28;20029;-54
2021/11/15 01:01:09;;;;;;;17.33;10.07;;;;;;;;;;5053531;28;20404;-55
2021/11/15 01:03:35;;;;;;;15.77;10.93;;;;;;;;;;5053303;28;20048;-55
2021/11/15 01:06:01;;;;;;;19.10;12.88;;;;;;;;;;5053270;28;20037;-57
2021/11/15 01:08:27;;;;;;;15.73;10.27;;;;;;;;;;5052635;28;20100;-55
2021/11/15 01:10:54;;;;;;;17.27;10.43;;;;;;;;;;5052967;28;20017;-55
2021/11/15 01:13:21;;;;;;;14.75;11.00;;;;;;;;;;5052964;28;20037;-57
2021/11/15 01:15:47;;;;;;;17.50;12.50;;;;;;;;;;5052246;28;20107;-56
2021/11/15 01:18:13;;;;;;;18.75;10.32;;;;;;;;;;5052363;28;20463;-57
2021/11/15 01:20:40;;;;;;;17.48;10.57;;;;;;;;;;5053186;28;20051;-55
2021/11/15 01:23:06;;;;;;;14.95;11.05;;;;;;;;;;5053004;28;20107;-56
2021/11/15 01:25:33;;;;;;;15.05;9.93;;;;;;;;;;5052597;28;20478;-57
2021/11/15 01:27:59;;;;;;;17.00;10.43;;;;;;;;;;5052285;28;20040;-56
2021/11/15 01:30:26;;;;;;;14.75;10.27;;;;;;;;;;5053012;28;20029;-57
2021/11/15 01:32:52;;;;;;;15.85;10.75;;;;;;;;;;5052715;28;20372;-55
2021/11/15 01:35:19;;;;;;;15.18;10.13;;;;;;;;;;5052844;28;20039;-56
2021/11/15 01:37:45;;;;;;;15.55;9.98;;;;;;;;;;5051981;28;20386;-53
2021/11/15 01:40:12;;;;;;;12.70;8.95;;;;;;;;;;5052634;28;20443;-54
2021/11/15 01:42:39;;;;;;;12.88;9.68;;;;;;;;;;5052638;28;20070;-54
2021/11/15 01:45:06;;;;;;;18.02;9.40;;;;;;;;;;5052965;28;20024;-55
2021/11/15 01:47:32;;;;;;;16.48;10.57;;;;;;;;;;5051640;28;20074;-55
2021/11/15 01:49:59;;;;;;;14.82;9.38;;;;;;;;;;5052600;28;20040;-56
2021/11/15 01:52:25;;;;;;;16.25;8.57;;;;;;;;;;5052362;28;20466;-55
2021/11/15 01:54:51;;;;;;;15.15;8.80;;;;;;;;;;5052359;28;20024;-56
2021/11/15 01:57:18;;;;;;;15.07;9.63;;;;;;;;;;5051805;28;20032;-57
2021/11/15 01:59:45;;;;;;;13.27;9.75;;;;;;;;;;5052690;28;20121;-56
2021/11/15 02:02:11;;;;;;;10.65;8.27;;;;;;;;;;5052271;28;20379;-57
2021/11/15 02:04:37;;;;;;;13.93;9.45;;;;;;;;;;5032702;28;20021;-54
2021/11/15 02:07:03;;;;;;;13.50;9.40;;;;;;;;;;5031512;28;20037;-56
2021/11/15 02:09:29;;;;;;;14.93;8.70;;;;;;;;;;5032519;28;20064;-56
2021/11/15 02:11:56;;;;;;;11.10;8.05;;;;;;;;;;5032319;28;20030;-56
2021/11/15 02:14:22;;;;;;;12.43;9.35;;;;;;;;;;5032683;28;20025;-56
2021/11/15 02:16:48;;;;;;;12.70;8.07;;;;;;;;;;5031649;28;20112;-57
2021/11/15 02:19:14;;;;;;;13.77;8.90;;;;;;;;;;5032320;28;20475;-56
2021/11/15 02:21:40;;;;;;;10.85;7.38;;;;;;;;;;5032644;28;20518;-56
2021/11/15 02:24:06;;;;;;;11.23;7.57;;;;;;;;;;5032282;28;20033;-57
2021/11/15 02:26:32;;;;;;;11.40;7.30;;;;;;;;;;5031297;28;20403;-57
2021/11/15 02:28:58;;;;;;;8.38;7.32;;;;;;;;;;5032232;28;20022;-56
2021/11/15 02:31:28;;;;;;;9.88;6.28;;;;;;;;;;5032182;28;20036;-56
2021/11/15 02:33:55;;;;;;;8.68;6.25;;;;;;;;;;5032411;28;20033;-56
2021/11/15 02:36:21;;;;;;;8.07;6.18;;;;;;;;;;5031514;28;20140;-55
2021/11/15 02:38:48;;;;;;;8.40;6.50;;;;;;;;;;5031998;28;20260;-55
2021/11/15 02:41:15;;;;;;;7.70;5.22;;;;;;;;;;5032179;28;20025;-55
2021/11/15 02:43:41;;;;;;;10.77;7.13;;;;;;;;;;5031847;28;20022;-55
2021/11/15 02:46:07;;;;;;;9.68;6.82;;;;;;;;;;5031923;28;20040;-55
2021/11/15 02:48:33;;;;;;;10.23;6.45;;;;;;;;;;5031615;28;20025;-56
2021/11/15 02:50:59;;;;;;;8.80;5.60;;;;;;;;;;5031793;28;20025;-56
2021/11/15 02:53:25;;;;;;;9.52;6.40;;;;;;;;;;5032156;28;20498;-55
2021/11/15 02:55:51;;;;;;;10.95;6.88;;;;;;;;;;5032051;28;20079;-54
2021/11/15 02:58:17;;;;;;;8.63;6.38;;;;;;;;;;5031164;28;20038;-56
2021/11/15 03:00:43;;;;;;;13.65;6.88;;;;;;;;;;5031824;28;20067;-56
2021/11/15 03:03:10;;;;;;;9.10;6.57;;;;;;;;;;5039184;28;20025;-57
2021/11/15 03:05:38;;;;;;;9.27;6.95;;;;;;;;;;5051465;28;20033;-56
2021/11/15 03:08:05;;;;;;;10.80;7.28;;;;;;;;;;5051085;28;20083;-56
2021/11/15 03:10:31;;;;;;;8.60;6.18;;;;;;;;;;5051774;28;20139;-57
2021/11/15 03:12:57;;;;;;;12.30;7.85;;;;;;;;;;5051472;28;20187;-55
2021/11/15 03:15:28;;;;;;;9.95;7.22;;;;;;;;;;5051511;28;20082;-57
2021/11/15 03:17:56;;;;;;;12.02;7.47;;;;;;;;;;5050611;28;20029;-56
2021/11/15 03:20:22;;;;;;;9.68;6.88;;;;;;;;;;5051705;28;20036;-57
2021/11/15 03:22:48;;;;;;;14.27;7.00;;;;;;;;;;5051629;28;20044;-55
2021/11/15 03:25:15;;;;;;;13.30;8.65;;;;;;;;;;5051629;28;20033;-56
2021/11/15 03:27:41;;;;;;;10.90;7.28;;;;;;;;;;5050646;28;20108;-57
2021/11/15 03:30:07;;;;;;;11.00;8.50;;;;;;;;;;5050988;28;20113;-56
2021/11/15 03:32:33;;;;;;;9.07;6.72;;;;;;;;;;5051308;28;20047;-56
2021/11/15 03:35:01;;;;;;;15.00;8.52;;;;;;;;;;5051263;28;20043;-57
2021/11/15 03:37:27;;;;;;;8.32;6.65;;;;;;;;;;5050754;28;20025;-55
2021/11/15 03:39:53;;;;;;;10.98;7.72;;;;;;;;;;5054865;28;20037;-57
2021/11/15 03:42:19;;;;;;;10.80;8.05;;;;;;;;;;5055067;28;20047;-57
2021/11/15 03:44:45;;;;;;;10.70;8.70;;;;;;;;;;5054682;28;20032;-54
2021/11/15 03:47:11;;;;;;;12.68;7.40;;;;;;;;;;5054029;28;20077;-56
2021/11/15 03:49:37;;;;;;;10.95;7.63;;;;;;;;;;5054987;28;20033;-55
2021/11/15 03:52:04;;;;;;;12.60;7.05;;;;;;;;;;5055066;28;20256;-56
2021/11/15 03:54:30;;;;;;;16.65;7.65;;;;;;;;;;5054658;28;20025;-56
2021/11/15 03:56:56;;;;;;;10.95;6.90;;;;;;;;;;5053913;28;20476;-56
2021/11/15 03:59:22;;;;;;;12.85;8.13;;;;;;;;;;5054749;28;20033;-56
2021/11/15 04:01:50;;;;;;;10.73;7.07;;;;;;;;;;5054430;28;20163;-56
2021/11/15 04:04:18;;;;;;;13.10;8.48;;;;;;;;;;5037823;28;20022;-56
2021/11/15 04:06:50;;;;;;;13.50;7.55;;;;;;;;;;5033827;28;20288;-56
2021/11/15 04:09:17;;;;;;;11.57;7.38;;;;;;;;;;5034603;28;20036;-56
2021/11/15 04:11:43;;;;;;;13.57;8.20;;;;;;;;;;5034588;28;20036;-56
2021/11/15 04:14:15;;;;;;;10.45;8.10;;;;;;;;;;5034233;28;20464;-56
2021/11/15 04:16:42;;;;;;;15.30;8.75;;;;;;;;;;5033549;28;20068;-56
2021/11/15 04:19:14;;;;;;;13.77;8.43;;;;;;;;;;5034345;28;20031;-57
2021/11/15 04:21:40;;;;;;;14.48;7.60;;;;;;;;;;5034506;28;20376;-56
2021/11/15 04:24:06;;;;;;;12.18;9.23;;;;;;;;;;5034255;28;20035;-56
2021/11/15 04:26:33;;;;;;;12.40;7.45;;;;;;;;;;5033452;28;20468;-56
2021/11/15 04:28:59;;;;;;;12.68;8.73;;;;;;;;;;5034040;28;20460;-56
2021/11/15 04:31:26;;;;;;;11.75;8.63;;;;;;;;;;5028050;28;20472;-57
2021/11/15 04:33:52;;;;;;;14.38;8.13;;;;;;;;;;5039542;28;20025;-54
2021/11/15 04:36:19;;;;;;;12.13;8.82;;;;;;;;;;5053027;28;20037;-56
2021/11/15 04:38:45;;;;;;;14.98;8.70;;;;;;;;;;5053918;28;20293;-56
2021/11/15 04:41:11;;;;;;;13.60;8.18;;;;;;;;;;5053945;28;20021;-56
2021/11/15 04:43:36;;;;;;;13.35;8.65;;;;;;;;;;5053581;28;20048;-57
2021/11/15 04:46:04;;;;;;;15.38;9.52;;;;;;;;;;5053826;28;20116;-56
2021/11/15 04:48:30;;;;;;;12.20;8.70;;;;;;;;;;5052989;28;20021;-56
2021/11/15 04:50:56;;;;;;;15.63;9.13;;;;;;;;;;5053311;28;20036;-56
2021/11/15 04:53:22;;;;;;;11.40;8.07;;;;;;;;;;5053677;28;20036;-56
2021/11/15 04:55:48;;;;;;;16.15;9.18;;;;;;;;;;5053382;28;20113;-56
2021/11/15 04:58:14;;;;;;;13.60;8.43;;;;;;;;;;5052951;28;20149;-56
2021/11/15 05:00:40;;;;;;;12.18;8.27;;;;;;;;;;5053504;28;20108;-56
2021/11/15 05:03:06;;;;;;;15.13;9.60;;;;;;;;;;5053332;28;20100;-56
2021/11/15 05:05:32;;;;;;;11.18;9.02;;;;;;;;;;5053294;28;20116;-56
2021/11/15 05:07:58;;;;;;;14.13;10.27;;;;;;;;;;5052797;28;20032;-56
2021/11/15 05:10:26;;;;;;;20.02;9.82;;;;;;;;;;5053607;28;20024;-56
2021/11/15 05:12:52;;;;;;;12.23;9.30;;;;;;;;;;5053263;28;20407;-56
2021/11/15 05:15:19;;;;;;;14.50;9.48;;;;;;;;;;5053098;28;20111;-55
2021/11/15 05:17:46;;;;;;;14.85;9.82;;;;;;;;;;5052427;28;20021;-56
2021/11/15 05:20:12;;;;;;;10.93;8.93;;;;;;;;;;5052874;28;20063;-56
2021/11/15 05:22:39;;;;;;;12.43;9.70;;;;;;;;;;5053028;28;20033;-56
2021/11/15 05:25:05;;;;;;;11.40;9.52;;;;;;;;;;5052805;28;20025;-56
2021/11/15 05:27:31;;;;;;;13.90;9.38;;;;;;;;;;5052339;28;20504;-56
2021/11/15 05:29:57;;;;;;;12.82;9.10;;;;;;;;;;5052762;28;20111;-56
2021/11/15 05:32:24;;;;;;;15.60;10.70;;;;;;;;;;5052796;28;20025;-55
2021/11/15 05:34:50;;;;;;;12.52;9.20;;;;;;;;;;5052752;28;20041;-57
2021/11/15 05:37:17;;;;;;;11.55;7.95;;;;;;;;;;5050800;28;20390;-56
2021/11/15 05:39:43;;;;;;;13.75;9.43;;;;;;;;;;5055476;28;20025;-57
2021/11/15 05:42:09;;;;;;;12.50;7.90;;;;;;;;;;5058481;28;20025;-56
2021/11/15 05:44:35;;;;;;;13.02;9.15;;;;;;;;;;5072767;28;20364;-56
2021/11/15 05:47:02;;;;;;;10.48;8.65;;;;;;;;;;5071856;28;20033;-57
2021/11/15 05:49:27;;;;;;;16.25;10.65;;;;;;;;;;5072475;28;20025;-54
2021/11/15 05:51:54;;;;;;;11.48;8.93;;;;;;;;;;5072389;28;20103;-57
2021/11/15 05:54:19;;;;;;;16.98;9.00;;;;;;;;;;5062916;28;20534;-55
2021/11/15 05:56:46;;;;;;;11.43;8.32;;;;;;;;;;5052177;28;20125;-57
2021/11/15 05:59:13;;;;;;;12.68;9.65;;;;;;;;;;5052674;28;20029;-55
2021/11/15 06:01:39;;;;;;;12.73;9.00;;;;;;;;;;5051850;28;20029;-57
2021/11/15 06:04:05;;;;;;;15.45;9.38;;;;;;;;;;5052341;28;20475;-57
2021/11/15 06:06:31;;;;;;;16.98;9.20;;;;;;;;;;5051540;28;20039;-57
2021/11/15 06:08:57;;;;;;;11.18;8.32;;;;;;;;;;5052080;28;20029;-57
2021/11/15 06:11:23;;;;;;;14.38;8.68;;;;;;;;;;5052040;28;20052;-56
2021/11/15 06:13:49;;;;;;;13.65;9.68;;;;;;;;;;5052316;28;20469;-57
2021/11/15 06:16:15;;;;;;;13.68;9.88;;;;;;;;;;5050430;28;20041;-58
2021/11/15 06:18:41;;;;;;;17.77;9.52;;;;;;;;;;5046783;28;20029;-57
2021/11/15 06:21:07;;;;;;;12.73;8.18;;;;;;;;;;5052345;28;20025;-56
2021/11/15 06:23:33;;;;;;;15.82;10.13;;;;;;;;;;5050995;28;20021;-57
2021/11/15 06:25:59;;;;;;;11.18;8.35;;;;;;;;;;5051310;28;20091;-57
2021/11/15 06:28:25;;;;;;;14.25;9.63;;;;;;;;;;5050801;28;20035;-57
2021/11/15 06:30:52;;;;;;;13.32;8.35;;;;;;;;;;5051917;28;20043;-57
2021/11/15 06:33:18;;;;;;;12.88;9.10;;;;;;;;;;5051141;28;20471;-55
2021/11/15 06:35:44;;;;;;;14.07;10.40;;;;;;;;;;5069902;28;20081;-57
2021/11/15 06:38:10;;;;;;;12.27;9.27;;;;;;;;;;5050550;28;20409;-57
2021/11/15 06:40:37;;;;;;;14.65;9.77;;;;;;;;;;5053173;28;20032;-57
2021/11/15 06:43:03;;;;;;;14.02;8.90;;;;;;;;;;5051597;28;20033;-55
2021/11/15 06:45:30;;;;;;;15.90;10.00;;;;;;;;;;5048548;28;20462;-57
2021/11/15 06:47:56;;;;;;;14.27;9.27;;;;;;;;;;5042009;28;20029;-57
2021/11/15 06:50:22;;;;;;;12.82;9.63;;;;;;;;;;5044274;28;20029;-57
2021/11/15 06:52:49;;;;;;;17.63;9.48;;;;;;;;;;5051370;28;20025;-57
2021/11/15 06:55:15;;;;;;;14.18;9.00;;;;;;;;;;5051551;28;20026;-58
2021/11/15 06:57:42;;;;;;;12.00;8.55;;;;;;;;;;5048558;28;20047;-57
2021/11/15 07:00:09;;;;;;;16.90;10.00;;;;;;;;;;5062796;28;20051;-57
2021/11/15 07:02:36;;;;;;;17.30;9.80;;;;;;;;;;5065381;28;20029;-57
2021/11/15 07:05:02;;;;;;;17.35;9.43;;;;;;;;;;5066154;28;20111;-55
2021/11/15 07:07:28;;;;;;;15.15;9.35;;;;;;;;;;5070736;28;20055;-55
2021/11/15 07:09:54;;;;;;;13.60;8.75;;;;;;;;;;5061681;28;20018;-57
2021/11/15 07:12:20;;;;;;;13.02;9.45;;;;;;;;;;5051824;28;20491;-56
2021/11/15 07:14:46;;;;;;;15.30;10.52;;;;;;;;;;5058533;28;20032;-57
2021/11/15 07:17:12;;;;;;;12.20;9.30;;;;;;;;;;5056111;28;20029;-57
2021/11/15 07:19:38;;;;;;;13.75;9.70;;;;;;;;;;5054770;28;20533;-56
2021/11/15 07:22:05;;;;;;;16.50;9.60;;;;;;;;;;5038849;28;20094;-58
2021/11/15 07:24:31;;;;;;;11.30;8.00;;;;;;;;;;5055051;28;20055;-57
2021/11/15 07:26:57;;;;;;;18.45;10.38;;;;;;;;;;5053634;28;20059;-57
2021/11/15 07:29:23;;;;;;;13.40;8.57;;;;;;;;;;5053218;28;20033;-57
2021/11/15 07:31:49;;;;;;;16.52;10.68;;;;;;;;;;5053705;28;20036;-57
2021/11/15 07:34:15;;;;;;;12.02;8.73;;;;;;;;;;5052807;28;20033;-58
2021/11/15 07:36:41;;;;;;;13.50;10.45;;;;;;;;;;5053662;28;20083;-56
2021/11/15 07:39:08;;;;;;;15.70;10.23;;;;;;;;;;5054189;28;20037;-57
2021/11/15 07:41:34;;;;;;;12.00;9.52;;;;;;;;;;5054654;28;20029;-56
2021/11/15 07:44:00;;;;;;;16.70;10.43;;;;;;;;;;5053779;28;20025;-58
2021/11/15 07:46:26;;;;;;;11.77;9.15;;;;;;;;;;5053154;28;20116;-57
2021/11/15 07:48:52;;;;;;;16.63;10.15;;;;;;;;;;5051588;28;20490;-57
2021/11/15 07:51:18;;;;;;;14.20;9.40;;;;;;;;;;5048952;28;20029;-58
2021/11/15 07:53:44;;;;;;;14.02;9.25;;;;;;;;;;5047655;28;20040;-57
2021/11/15 07:56:11;;;;;;;13.02;9.88;;;;;;;;;;5050129;28;20037;-57
2021/11/15 07:58:37;;;;;;;12.13;9.05;;;;;;;;;;5045952;28;20382;-58
2021/11/15 08:01:04;;;;;;;12.85;9.90;;;;;;;;;;5045303;28;20036;-57
2021/11/15 08:03:30;;;;;;;14.60;9.48;;;;;;;;;;5046076;28;20367;-58
2021/11/15 08:05:57;;;;;;;14.45;8.32;;;;;;;;;;5045326;28;20494;-59
2021/11/15 08:08:23;;;;;;;12.88;9.38;;;;;;;;;;5042898;28;20407;-56
2021/11/15 08:10:50;;;;;;;13.93;9.85;;;;;;;;;;5048068;28;20024;-56
2021/11/15 08:13:16;;;;;;;12.15;8.07;;;;;;;;;;5047660;28;20028;-56
2021/11/15 08:15:42;;;;;;;15.90;9.98;;;;;;;;;;5049544;28;20099;-56
2021/11/15 08:18:08;;;;;;;15.00;10.15;;;;;;;;;;5051078;28;20036;-56
2021/11/15 08:20:39;;;;;;;13.38;8.90;;;;;;;;;;5048446;28;20025;-56
2021/11/15 08:23:13;;;;;;;11.48;9.43;;;;;;;;;;5050501;28;20029;-54
2021/11/15 08:25:42;;;;;;;12.18;8.20;;;;;;;;;;5049010;28;20029;-54
2021/11/15 08:28:08;;;;;;;14.68;9.88;;;;;;;;;;5039830;28;20083;-55
2021/11/15 08:30:34;;;;;;;13.07;9.45;;;;;;;;;;5044088;28;20033;-57
2021/11/15 08:33:00;;;;;;;15.77;9.93;;;;;;;;;;5050072;28;20049;-56
2021/11/15 08:35:26;;;;;;;14.77;10.00;;;;;;;;;;5050450;28;20092;-56
2021/11/15 08:38:10;;;;;;;13.05;9.63;;;;;;;;;;5047925;28;20075;-57
2021/11/15 08:40:36;;;;;;;14.68;10.82;;;;;;;;;;5046820;28;20451;-57
2021/11/15 08:43:02;;;;;;;19.88;9.13;;;;;;;;;;5051454;28;20393;-56
2021/11/15 08:45:28;;;;;;;14.45;10.07;;;;;;;;;;5045807;28;20033;-56
2021/11/15 08:47:54;;;;;;;13.27;8.82;;;;;;;;;;5047222;28;20110;-55
2021/11/15 08:50:21;;;;;;;13.15;8.70;;;;;;;;;;5048465;28;20478;-55
2021/11/15 08:52:47;;;;;;;13.68;9.18;;;;;;;;;;5047900;28;20052;-57
2021/11/15 08:55:13;;;;;;;13.65;9.05;;;;;;;;;;5048086;28;20099;-58
2021/11/15 08:57:38;;;;;;;15.50;9.35;;;;;;;;;;5049062;28;20029;-57
2021/11/15 09:00:05;;;;;;;15.05;9.70;;;;;;;;;;5042248;28;20040;-57
2021/11/15 09:02:31;;;;;;;13.63;9.32;;;;;;;;;;5052454;28;20021;-57
2021/11/15 09:04:57;;;;;;;16.70;11.30;;;;;;;;;;5051276;28;20041;-57
2021/11/15 09:07:23;;;;;;;13.70;10.57;;;;;;;;;;5051057;28;20033;-57
2021/11/15 09:09:49;;;;;;;20.45;11.70;;;;;;;;;;5048874;28;20037;-57
2021/11/15 09:12:16;;;;;;;12.05;10.43;;;;;;;;;;5049810;28;20025;-57
2021/11/15 09:14:42;;;;;;;13.75;11.32;;;;;;;;;;5051906;28;20029;-57
2021/11/15 09:17:08;;;;;;;16.88;12.52;;;;;;;;;;5050576;28;20393;-56
2021/11/15 09:19:35;;;;;;;15.70;12.02;;;;;;;;;;5050688;28;20029;-55
2021/11/15 09:22:01;;;;;;;18.65;12.57;;;;;;;;;;5051706;28;20499;-57
2021/11/15 09:24:27;;;;;;;18.13;12.15;;;;;;;;;;5051410;28;20029;-56
2021/11/15 09:26:54;;;;;;;17.58;12.65;;;;;;;;;;5049919;28;20096;-56
2021/11/15 09:29:21;;;;;;;17.70;12.68;;;;;;;;;;5048345;28;20060;-57
2021/11/15 09:31:48;;;;;;;14.63;11.68;;;;;;;;;;5049684;28;20123;-58
2021/11/15 09:34:14;;;;;;;17.73;13.48;;;;;;;;;;5050496;28;20083;-57
2021/11/15 09:36:41;;;;;;;17.33;12.70;;;;;;;;;;5050062;28;20091;-57
2021/11/15 09:39:08;;;;;;;21.35;12.70;;;;;;;;;;5054779;28;20028;-57
2021/11/15 09:41:34;;;;;;;16.05;12.57;;;;;;;;;;5053408;28;20479;-57
2021/11/15 09:44:00;;;;;;;18.98;14.60;;;;;;;;;;5048723;28;20029;-57
2021/11/15 09:46:27;;;;;;;15.10;11.27;;;;;;;;;;5041771;28;20037;-57
2021/11/15 09:49:02;;;;;;;13.90;10.90;;;;;;;;;;5048765;28;20060;-57
2021/11/15 09:51:28;;;;;;;24.05;13.68;;;;;;;;;;5051273;28;20551;-58
2021/11/15 09:53:55;;;;;;;14.18;10.52;;;;;;;;;;5048141;28;20108;-57
2021/11/15 09:56:23;;;;;;;22.42;13.98;;;;;;;;;;5052394;28;20029;-57
2021/11/15 09:58:49;;;;;;;15.27;12.98;;;;;;;;;;5049718;28;20085;-57
2021/11/15 10:01:15;;;;;;;15.98;12.05;;;;;;;;;;5044950;28;20517;-57
2021/11/15 10:03:41;;;;;;;15.98;12.75;;;;;;;;;;5040144;28;20475;-57
2021/11/15 10:06:07;;;;;;;16.45;11.02;;;;;;;;;;5046634;28;20075;-58
2021/11/15 10:08:49;;;;;;;17.88;12.90;;;;;;;;;;5041340;28;20037;-58
2021/11/15 10:11:16;;;;;;;22.33;13.82;;;;;;;;;;5041921;28;20056;-57
2021/11/15 10:13:42;;;;;;;24.10;13.40;;;;;;;;;;5041542;28;20029;-57
2021/11/15 10:16:18;;;;;;;17.52;12.07;;;;;;;;;;5043219;28;20116;-58
2021/11/15 10:18:53;;;;;;;15.57;13.43;;;;;;;;;;5037722;28;20036;-57
2021/11/15 10:21:22;;;;;;;18.17;13.02;;;;;;;;;;5043290;28;20029;-58
2021/11/15 10:23:50;;;;;;;17.52;12.73;;;;;;;;;;5042708;28;20033;-55
2021/11/15 10:26:22;;;;;;;18.17;13.50;;;;;;;;;;5046819;28;20134;-56
2021/11/15 10:28:51;;;;;;;21.15;13.20;;;;;;;;;;5048649;28;20040;-57
2021/11/15 10:31:24;;;;;;;18.90;13.38;;;;;;;;;;5035076;28;20471;-56
2021/11/15 10:33:50;;;;;;;23.48;15.05;;;;;;;;;;5045355;28;20268;-57
2021/11/15 10:36:16;;;;;;;19.70;13.55;;;;;;;;;;5049886;28;20154;-58
2021/11/15 10:38:46;;;;;;;16.60;12.60;;;;;;;;;;5049476;28;20475;-58
2021/11/15 10:41:13;;;;;;;17.92;12.60;;;;;;;;;;5048736;28;20341;-56
2021/11/15 10:43:39;;;;;;;21.45;13.68;;;;;;;;;;5042995;28;21844;-57
2021/11/15 10:46:06;;;;;;;16.67;13.30;;;;;;;;;;5040805;28;20121;-57
2021/11/15 10:48:45;;;;;;;21.55;13.68;;;;;;;;;;5053410;28;20025;-57
2021/11/15 10:51:13;;;;;;;19.63;12.40;;;;;;;;;;5054625;28;20029;-57
2021/11/15 10:53:56;;;;;;;19.27;12.27;;;;;;;;;;5054150;28;20086;-57
2021/11/15 10:56:39;;;;;;;23.40;15.57;;;;;;;;;;5051935;28;20367;-57
2021/11/15 10:59:15;;;;;;;16.85;12.07;;;;;;;;;;5051236;28;20033;-59
2021/11/15 11:01:43;;;;;;;21.40;13.77;;;;;;;;;;5051643;28;20091;-59
2021/11/15 11:04:16;;;;;;;15.52;11.20;;;;;;;;;;5053265;28;20170;-57
2021/11/15 11:06:59;;;;;;;15.82;10.60;;;;;;;;;;5068251;28;20017;-58
2021/11/15 11:09:50;;;;;;;15.63;11.73;;;;;;;;;;5054699;28;20048;-58
2021/11/15 11:12:23;;;;;;;18.15;12.20;;;;;;;;;;5050123;28;20037;-58
2021/11/15 11:14:51;;;;;;;19.33;12.35;;;;;;;;;;5054171;28;20043;-58
2021/11/15 11:17:17;;;;;;;20.05;12.85;;;;;;;;;;5054249;28;20029;-56
2021/11/15 11:20:25;;;;;;;14.82;13.07;;;;;;;;;;5055285;28;20078;-57
2021/11/15 11:23:45;;;;;;;17.42;11.68;;;;;;;;;;5054541;28;20108;-58
2021/11/15 11:25:56;;;;;;;13.45;11.00;;;;;;;;;;5041065;28;20029;-58
2021/11/15 11:28:27;;;;;;;17.08;12.55;;;;;;;;;;5054049;28;20032;-58
2021/11/15 11:30:53;;;;;;;17.98;12.05;;;;;;;;;;5054377;28;20025;-58
2021/11/15 11:33:19;;;;;;;15.48;11.43;;;;;;;;;;5053747;28;20035;-58
2021/11/15 11:35:45;;;;;;;17.55;12.00;;;;;;;;;;5053974;28;20348;-58
2021/11/15 11:38:12;;;;;;;18.23;12.82;;;;;;;;;;5054194;28;20029;-58
2021/11/15 11:40:39;;;;;;;18.25;13.07;;;;;;;;;;5054933;28;20056;-58
2021/11/15 11:43:05;;;;;;;16.23;12.38;;;;;;;;;;5054891;28;20116;-58
2021/11/15 11:45:31;;;;;;;19.02;12.18;;;;;;;;;;5055018;28;20124;-58
2021/11/15 11:47:57;;;;;;;15.77;12.48;;;;;;;;;;5054386;28;20021;-58
2021/11/15 11:50:23;;;;;;;19.75;11.55;;;;;;;;;;5054918;28;20021;-58
2021/11/15 11:53:04;;;;;;;17.90;12.88;;;;;;;;;;5054843;28;20433;-58
2021/11/15 11:55:32;;;;;;;17.75;11.80;;;;;;;;;;5054696;28;20443;-58
2021/11/15 11:57:58;;;;;;;18.05;12.63;;;;;;;;;;5054074;28;20078;-58
2021/11/15 12:00:24;;;;;;;16.70;12.13;;;;;;;;;;5053869;28;20104;-59
2021/11/15 12:03:02;;;;;;;19.63;12.05;;;;;;;;;;5054665;28;20025;-58
2021/11/15 12:05:29;;;;;;;21.10;13.20;;;;;;;;;;5054754;28;20029;-58
2021/11/15 12:07:57;;;;;;;15.38;12.88;;;;;;;;;;5053983;28;20108;-58
2021/11/15 12:10:33;;;;;;;19.80;14.27;;;;;;;;;;5052217;28;20025;-58
2021/11/15 12:13:00;;;;;;;17.45;12.73;;;;;;;;;;5054590;28;20029;-57
2021/11/15 12:15:28;;;;;;;19.58;11.60;;;;;;;;;;5054235;28;20052;-58
2021/11/15 12:18:04;;;;;;;20.00;13.85;;;;;;;;;;5053428;28;20483;-58
2021/11/15 12:20:30;;;;;;;18.08;11.88;;;;;;;;;;5054175;28;20048;-58
2021/11/15 12:22:58;;;;;;;17.00;12.65;;;;;;;;;;5054093;28;20029;-56
2021/11/15 12:25:26;;;;;;;20.92;13.38;;;;;;;;;;5052638;28;20021;-56
2021/11/15 12:27:54;;;;;;;20.45;12.82;;;;;;;;;;5053429;28;20390;-59
2021/11/15 12:30:26;;;;;;;17.40;13.30;;;;;;;;;;5053886;28;20404;-58
2021/11/15 12:33:16;;;;;;;22.30;13.57;;;;;;;;;;5054111;28;20036;-58
2021/11/15 12:36:01;;;;;;;23.20;13.77;;;;;;;;;;5054040;28;20129;-58
2021/11/15 12:38:33;;;;;;;19.10;12.48;;;;;;;;;;5053121;28;20033;-59
2021/11/15 12:40:59;;;;;;;20.45;13.10;;;;;;;;;;5053727;28;20036;-58
2021/11/15 12:43:25;;;;;;;14.25;11.55;;;;;;;;;;5053859;28;20064;-59
2021/11/15 12:46:06;;;;;;;20.63;13.20;;;;;;;;;;5053653;28;20056;-58
2021/11/15 12:48:33;;;;;;;17.85;13.70;;;;;;;;;;5053224;28;20276;-58
2021/11/15 12:51:08;;;;;;;21.20;14.40;;;;;;;;;;5053319;28;20026;-58
2021/11/15 12:53:35;;;;;;;30.00;15.88;;;;;;;;;;5053685;28;20383;-58
2021/11/15 12:56:00;;;;;;;19.33;13.70;;;;;;;;;;5053318;28;20032;-58
2021/11/15 12:58:26;;;;;;;20.52;14.10;;;;;;;;;;5052981;28;20021;-59
2021/11/15 13:00:52;;;;;;;21.67;13.35;;;;;;;;;;5053568;28;20467;-58
2021/11/15 13:03:18;;;;;;;16.88;13.02;;;;;;;;;;5053249;28;20103;-58
2021/11/15 13:05:44;;;;;;;22.67;13.23;;;;;;;;;;5053138;28;20083;-58
2021/11/15 13:08:12;;;;;;;19.85;14.15;;;;;;;;;;5052911;28;20021;-58
2021/11/15 13:10:41;;;;;;;18.20;13.95;;;;;;;;;;5050738;28;20029;-58
2021/11/15 13:13:07;;;;;;;18.70;13.57;;;;;;;;;;5053170;28;20071;-57
2021/11/15 13:15:33;;;;;;;18.77;13.02;;;;;;;;;;5053053;28;20064;-59
2021/11/15 13:17:59;;;;;;;20.98;13.90;;;;;;;;;;5052433;28;20037;-58
2021/11/15 13:20:25;;;;;;;16.63;12.77;;;;;;;;;;5053215;28;20021;-58
2021/11/15 13:22:51;;;;;;;19.42;14.43;;;;;;;;;;5053241;28;20029;-58
2021/11/15 13:25:18;;;;;;;18.92;13.50;;;;;;;;;;5053054;28;20112;-58
2021/11/15 13:27:44;;;;;;;19.30;14.23;;;;;;;;;;5051974;28;20032;-58
2021/11/15 13:30:13;;;;;;;15.75;13.32;;;;;;;;;;5052433;28;20025;-58
2021/11/15 13:32:40;;;;;;;15.85;12.82;;;;;;;;;;5052848;28;20055;-57
2021/11/15 13:35:07;;;;;;;18.98;12.82;;;;;;;;;;5052753;28;20402;-58
2021/11/15 13:37:33;;;;;;;21.17;14.27;;;;;;;;;;5052161;28;20044;-59
2021/11/15 13:40:00;;;;;;;23.50;14.00;;;;;;;;;;5052562;28;20379;-58
2021/11/15 13:42:26;;;;;;;15.40;12.68;;;;;;;;;;5052369;28;20035;-58
2021/11/15 13:44:52;;;;;;;19.60;14.02;;;;;;;;;;5052500;28;20036;-57
2021/11/15 13:47:19;;;;;;;17.42;13.25;;;;;;;;;;5051553;28;20033;-59
2021/11/15 13:49:45;;;;;;;17.88;13.95;;;;;;;;;;5052518;28;20048;-58
2021/11/15 13:52:11;;;;;;;20.23;14.45;;;;;;;;;;5052630;28;20025;-57
2021/11/15 13:54:38;;;;;;;19.70;15.00;;;;;;;;;;5052556;28;20117;-58
2021/11/15 13:57:04;;;;;;;21.20;14.75;;;;;;;;;;5051430;28;20020;-56
2021/11/15 13:59:30;;;;;;;22.27;15.65;;;;;;;;;;5052440;28;20029;-58
2021/11/15 14:01:56;;;;;;;18.58;14.45;;;;;;;;;;5052224;28;20083;-58
2021/11/15 14:04:22;;;;;;;18.63;13.75;;;;;;;;;;5034987;28;20025;-58
2021/11/15 14:06:48;;;;;;;17.48;13.90;;;;;;;;;;5031717;28;20033;-58
2021/11/15 14:09:14;;;;;;;21.75;14.98;;;;;;;;;;5032782;28;20029;-57
2021/11/15 14:11:40;;;;;;;22.27;14.45;;;;;;;;;;5029591;28;20098;-58
2021/11/15 14:14:07;;;;;;;22.77;14.25;;;;;;;;;;5032068;28;20048;-58
2021/11/15 14:16:33;;;;;;;22.92;14.32;;;;;;;;;;5031270;28;20030;-58
2021/11/15 14:18:58;;;;;;;18.33;13.85;;;;;;;;;;5032452;28;20033;-59
2021/11/15 14:21:24;;;;;;;19.02;13.98;;;;;;;;;;5031920;28;20036;-58
2021/11/15 14:23:50;;;;;;;20.77;14.38;;;;;;;;;;5032067;28;20037;-56